EST,Max TemperatureF,Mean TemperatureF,Min TemperatureF,Max Dew PointF,MeanDew PointF,Min DewpointF,Max Humidity, Mean Humidity, Min Humidity, Max Sea Level PressureIn, Mean Sea Level PressureIn, Min Sea Level PressureIn, Max VisibilityMiles, Mean VisibilityMiles, Min VisibilityMiles, Max Wind SpeedMPH, Mean Wind SpeedMPH, Max Gust SpeedMPH,PrecipitationIn, CloudCover, Events, WindDirDegrees
2014-2-1,50,40,30,32,26,21,93,65,32,30.31,30.20,30.00,10,10,7,7,1,,0.00,0,,150
2014-2-2,53,40,28,37,32,28,100,74,44,30.09,29.98,29.93,10,7,1,5,0,,0.00,4,,317
2014-2-3,42,36,28,36,32,27,93,90,70,30.32,30.14,30.06,10,5,0,5,1,,0.53,8,,20
2014-2-4,33,25,17,30,23,14,93,83,64,30.46,30.37,30.20,10,9,5,6,0,,0.00,3,,75
2014-2-5,33,32,32,32,32,30,100,95,93,30.21,30.05,29.89,3,2,1,8,2,,0.69,8,,51
2014-2-6,26,,26,21,21,21,80,80,80,30.28,30.28,30.28,10,10,10,0,0,,0.00,,,-1
2014-2-7,33,26,19,21,19,16,93,68,51,30.33,30.29,30.24,10,9,3,9,2,,0.00,0,,265
2014-2-8,30,24,17,19,13,1,86,62,31,30.34,30.27,30.16,10,10,5,5,0,,0.00,2,,276
2014-2-9,32,24,17,27,18,12,93,71,47,30.18,30.10,30.00,10,8,0,7,1,,0.11,7,,195
2014-2-10,30,22,12,23,12,7,93,61,37,30.29,30.17,30.02,10,9,4,9,3,,0.00,0,,298
2014-2-11,26,17,8,10,6,3,92,59,37,30.48,30.38,30.29,10,9,5,9,2,,0.00,0,,309
2014-2-12,26,16,5,21,9,0,93,64,40,30.54,30.44,30.22,10,9,2,10,2,16,0.00,2,,70
2014-2-13,35,29,23,34,30,21,100,90,86,30.22,29.61,29.14,7,2,0,16,8,26,0.71,8,,31
2014-2-14,44,36,28,32,27,21,100,72,46,29.77,29.51,29.16,10,9,1,17,9,29,0.02,2,,269
2014-2-15,35,32,30,32,27,12,93,78,47,29.83,29.70,29.58,10,7,0,15,3,26,0.06,4,,359
2014-2-16,30,26,21,18,12,9,74,55,43,30.15,29.99,29.84,10,10,10,12,7,23,0.00,0,,290
2014-2-17,32,24,17,16,7,1,74,52,27,30.42,30.32,30.16,10,10,10,8,2,17,0.00,0,,310
2014-2-18,44,35,26,32,27,12,100,78,47,30.27,30.08,29.97,10,7,1,12,3,,0.08,4,,237
2014-2-19,46,34,23,37,31,21,93,82,57,30.09,29.88,29.70,10,6,1,12,1,21,0.23,2,,79
2014-2-20,50,37,24,32,27,19,93,60,32,30.27,30.14,29.98,10,10,5,7,2,,0.03,3,,150
2014-2-21,53,42,32,52,38,32,100,92,75,29.97,29.83,29.61,10,2,0,14,4,22,0.27,8,,69
2014-2-22,55,42,30,32,28,19,100,64,25,30.07,30.01,29.94,10,9,0,20,3,29,0.00,0,,224
2014-2-23,51,42,32,34,30,27,100,62,38,30.01,29.95,29.88,10,10,10,8,3,18,0.02,1,,281
2014-2-24,37,34,30,34,17,10,87,50,33,30.10,29.96,29.86,10,10,10,16,5,23,0.00,1,,286
2014-2-25,33,27,21,25,16,10,80,60,44,30.10,30.03,29.96,10,9,2,13,3,20,0.00,2,,264
2014-2-26,32,23,12,27,12,-2,93,59,27,29.98,29.90,29.85,10,8,1,15,3,28,0.01,2,,275
2014-2-27,33,20,8,19,5,-13,85,53,25,30.14,29.80,29.64,10,10,3,20,5,29,0.00,1,,273
2014-2-28,24,16,8,7,-6,-15,79,40,26,30.41,30.34,30.16,10,10,7,9,2,,0.00,0,,304